KWYSKEKS

Guest
Details From KWYS - Yellowstone
To KEKS - Ennis Big Sky
Flight Number -
Tags generated
Created
Modified
Stats Distance 42 nm / 77 km
Max Altitude 0 ft / 0 m
Waypoints 2
Social Downloads 0
Likes 0
Share VATSIM

Download

Looking for another format? Having issues loading an existing format? Contact us
Advertisement - Login to hide

Notes

Basic altitude profile: - Ascent Rate: 2500ft/min - Ascent Speed: 250kts - Cruise Altitude: 35000ft - Cruise Speed: 420kts - Descent Rate: 1500ft/min - Descent Speed: 250kts Options: - Use NATs: yes - Use PACOTS: yes - Use low airways: yes - Use high airways: yes

Route

KWYS KEKS

ID Type Via Altitude Latitude Longitude Leg Dist Tot Dist Heading (true) Name
O KWYS APT - 0 ft / 0 m 44.68840˚ -111.11764˚ - 0 nm - Yellowstone
O KEKS APT - 0 ft / 0 m 45.27176˚ -111.64864˚ 41 nm 41 nm 327° / 327° Ennis Big Sky

Altitude Profile

Advertisement - Login to hide

KWYS

Details ICAO KWYS (WYS)
Name Yellowstone
Region United States
Timezone America/Denver (UTC-7.0)
Stats Elevation 6,644 ft / 2,025 m (AMSL)
Location 44.688398° -111.117638°
Runways 1
Magnetic Variation 11.725° E

METAR

KWYS 120435Z AUTO 00000KT 10SM CLR M14/M15 A3056 RMK AO2

Decode

TAF

Not found

Departure Runways

ID Width Length Bearing (true) Bearing (mag) Surface Threshold Offset Overrun Length
01 150 ft / 46 m 8,399 ft / 2,560 m 26.19° 14.46° Asphalt 0 ft / 0 m 0 ft / 0 m
19 150 ft / 46 m 8,399 ft / 2,560 m 206.20° 194.47° Asphalt 0 ft / 0 m 0 ft / 0 m

KEKS

Details ICAO KEKS
Name Ennis Big Sky
Region United States
Timezone America/Denver (UTC-7.0)
Stats Elevation 5,383 ft / 1,641 m (AMSL)
Location 45.271758° -111.648639°
Runways 1
Magnetic Variation 12.043° E

METAR

KEKS 120435Z AUTO 00000KT 10SM CLR M02/M10 A3052 RMK AO2

Decode

TAF

TAF KEKS 112320Z 1200/1224 18009KT P6SM SCT200

Decode

Destination Runways

ID Width Length Bearing (true) Bearing (mag) Surface Threshold Offset Overrun Length
16 75 ft / 23 m 4,697 ft / 1,432 m 176.60° 164.56° Asphalt 0 ft / 0 m 0 ft / 0 m
34 75 ft / 23 m 4,697 ft / 1,432 m 356.60° 344.56° Asphalt 0 ft / 0 m 0 ft / 0 m